createdAt,value
2023-04-02T00:01:04.818Z,2.05
2023-04-02T00:03:42.453Z,0.95
2023-04-02T00:06:32.743Z,0.90
2023-04-02T00:09:07.362Z,3.43
2023-04-02T00:11:38.829Z,3.70
2023-04-02T00:14:13.365Z,2.10
2023-04-02T00:16:42.728Z,1.95
2023-04-02T00:19:18.248Z,1.77
2023-04-02T00:21:50.770Z,2.63
2023-04-02T00:24:21.883Z,1.80
2023-04-02T00:26:51.587Z,2.17
2023-04-02T00:29:19.861Z,1.25
2023-04-02T00:31:49.157Z,1.30
2023-04-02T00:34:37.260Z,0.90
2023-04-02T00:37:05.248Z,2.42
2023-04-02T00:39:39.624Z,2.85
2023-04-02T00:42:06.428Z,1.70
2023-04-02T00:44:38.716Z,2.08
2023-04-02T00:47:22.677Z,2.07
2023-04-02T00:49:57.040Z,3.78
2023-04-02T00:52:27.887Z,2.38
2023-04-02T00:55:15.740Z,2.42
2023-04-02T00:57:48.150Z,2.47
2023-04-02T01:00:23.921Z,2.90
2023-04-02T01:03:13.180Z,2.70
2023-04-02T01:05:42.534Z,1.92
2023-04-02T01:08:21.886Z,3.97
2023-04-02T01:11:07.360Z,3.33
2023-04-02T01:13:48.104Z,2.67
2023-04-02T01:16:38.940Z,3.20
2023-04-02T01:19:42.408Z,4.43
2023-04-02T01:22:42.288Z,2.53
2023-04-02T01:25:19.353Z,4.05
2023-04-02T01:27:58.746Z,4.17
2023-04-02T01:30:25.658Z,3.45
2023-04-02T01:32:55.502Z,4.00
2023-04-02T01:35:27.647Z,3.53
2023-04-02T01:38:10.540Z,2.63
2023-04-02T01:40:52.761Z,3.20
2023-04-02T01:43:44.341Z,4.75
2023-04-02T01:46:26.191Z,4.53
2023-04-02T01:48:54.576Z,3.83
2023-04-02T01:51:33.396Z,4.57
2023-04-02T01:54:03.980Z,5.20
2023-04-02T01:56:33.002Z,5.97
2023-04-02T01:59:02.904Z,4.65
2023-04-02T02:01:40.987Z,4.45
2023-04-02T02:04:13.777Z,3.58
2023-04-02T02:06:43.040Z,2.60
2023-04-02T02:09:18.240Z,3.85
2023-04-02T02:11:44.935Z,3.92
2023-04-02T02:14:28.942Z,2.65
2023-04-02T02:16:58.123Z,2.80
2023-04-02T02:19:39.598Z,2.77
2023-04-02T02:22:20.943Z,3.03
2023-04-02T02:24:48.275Z,2.10
2023-04-02T02:27:42.695Z,2.78
2023-04-02T02:30:15.568Z,4.20
2023-04-02T02:33:28.888Z,2.40
2023-04-02T02:36:06.484Z,3.60
2023-04-02T02:39:08.237Z,3.22
2023-04-02T02:41:41.456Z,2.75
2023-04-02T02:44:11.152Z,3.55
2023-04-02T02:47:02.610Z,2.47
2023-04-02T02:49:40.739Z,2.70
2023-04-02T02:52:13.008Z,3.63
2023-04-02T02:54:44.668Z,2.83
2023-04-02T02:57:17.685Z,2.97
2023-04-02T02:59:51.584Z,2.17
2023-04-02T03:02:18.774Z,2.20
2023-04-02T03:04:53.114Z,3.30
2023-04-02T03:07:30.290Z,2.17
2023-04-02T03:10:18.150Z,3.50
2023-04-02T03:13:05.220Z,1.80
2023-04-02T03:15:59.256Z,2.03
2023-04-02T03:18:47.997Z,1.75
2023-04-02T03:21:20.395Z,1.83
2023-04-02T03:23:57.803Z,1.80
2023-04-02T03:26:35.694Z,3.37
2023-04-02T03:29:16.407Z,2.15
2023-04-02T03:31:53.731Z,1.65
2023-04-02T03:34:34.222Z,2.28
2023-04-02T03:37:16.955Z,1.90
2023-04-02T03:40:26.606Z,1.63
2023-04-02T03:43:14.884Z,1.95
2023-04-02T03:45:50.796Z,1.55
2023-04-02T03:48:28.693Z,2.80
2023-04-02T03:51:06.797Z,2.22
2023-04-02T03:53:34.046Z,2.13
2023-04-02T03:56:04.335Z,1.67
2023-04-02T03:58:41.153Z,1.88
2023-04-02T04:01:34.471Z,2.15
2023-04-02T04:04:10.786Z,3.05
2023-04-02T04:06:42.716Z,1.57
2023-04-02T04:09:16.103Z,2.67
2023-04-02T04:11:51.760Z,3.40
2023-04-02T04:14:21.312Z,2.10
2023-04-02T04:17:13.920Z,2.60
2023-04-02T04:19:46.227Z,1.87
2023-04-02T04:22:30.502Z,2.72
2023-04-02T04:24:59.028Z,2.03
2023-04-02T04:27:52.863Z,2.35
2023-04-02T04:30:27.373Z,2.30
2023-04-02T04:32:58.874Z,2.93
2023-04-02T04:35:26.149Z,3.65
2023-04-02T04:38:27.826Z,3.22
2023-04-02T04:40:58.997Z,3.40
2023-04-02T04:43:40.825Z,2.80
2023-04-02T04:46:16.006Z,3.20
2023-04-02T04:48:48.763Z,3.42
2023-04-02T04:51:26.619Z,2.70
2023-04-02T04:53:55.308Z,2.65
2023-04-02T04:56:27.410Z,3.17
2023-04-02T04:58:56.923Z,3.63
2023-04-02T05:01:27.353Z,2.90
2023-04-02T05:04:06.728Z,2.78
2023-04-02T05:06:45.090Z,2.65
2023-04-02T05:10:09.487Z,4.53
2023-04-02T05:12:54.501Z,3.63
2023-04-02T05:15:36.587Z,3.85
2023-04-02T05:18:23.484Z,4.78
2023-04-02T05:21:08.082Z,4.18
2023-04-02T05:23:40.223Z,4.05
2023-04-02T05:26:15.187Z,4.57
2023-04-02T05:28:50.831Z,5.53
2023-04-02T05:31:26.345Z,4.35
2023-04-02T05:33:55.071Z,3.63
2023-04-02T05:36:27.905Z,2.78
2023-04-02T05:38:58.526Z,4.67
2023-04-02T05:41:36.903Z,3.97
2023-04-02T05:44:08.902Z,5.85
2023-04-02T05:46:42.471Z,3.75
2023-04-02T05:49:22.595Z,5.85
2023-04-02T05:52:00.100Z,4.93
2023-04-02T05:54:55.609Z,7.18
2023-04-02T05:57:44.547Z,4.90
2023-04-02T06:00:25.293Z,4.70
2023-04-02T06:03:00.222Z,5.55
2023-04-02T06:05:34.521Z,6.40
2023-04-02T06:08:25.671Z,4.93
2023-04-02T06:11:07.512Z,5.18
2023-04-02T06:13:34.318Z,5.07
2023-04-02T06:16:05.951Z,4.70
2023-04-02T06:18:36.155Z,5.90
2023-04-02T06:21:05.936Z,5.60
2023-04-02T06:23:51.263Z,3.50
2023-04-02T06:26:43.919Z,5.43
2023-04-02T06:29:40.135Z,4.25
2023-04-02T06:32:11.490Z,4.97
2023-04-02T06:34:44.865Z,4.25
2023-04-02T06:37:37.729Z,4.53
2023-04-02T06:40:17.453Z,4.82
2023-04-02T06:42:47.598Z,4.00
2023-04-02T06:45:26.647Z,4.67
2023-04-02T06:47:59.863Z,4.30
2023-04-02T06:50:36.032Z,5.15
2023-04-02T06:53:06.505Z,3.65
2023-04-02T06:55:56.956Z,3.08
2023-04-02T06:58:26.034Z,3.60
2023-04-02T07:00:52.940Z,3.70
2023-04-02T07:03:28.558Z,3.72
2023-04-02T07:05:59.188Z,3.70
2023-04-02T07:08:25.934Z,4.00
2023-04-02T07:10:55.466Z,4.77
2023-04-02T07:13:23.475Z,3.53
2023-04-02T07:15:54.981Z,3.80
2023-04-02T07:18:24.035Z,4.07
2023-04-02T07:20:53.349Z,4.70
2023-04-02T07:23:21.231Z,3.00
2023-04-02T07:25:53.089Z,3.90
2023-04-02T07:28:22.518Z,3.25
2023-04-02T07:30:50.571Z,3.15
2023-04-02T07:33:23.895Z,4.15
2023-04-02T07:35:57.433Z,3.50
2023-04-02T07:38:24.204Z,4.13
2023-04-02T07:40:53.045Z,4.47
2023-04-02T07:43:23.161Z,3.28
2023-04-02T07:45:51.923Z,4.80
2023-04-02T07:48:21.611Z,3.70
2023-04-02T07:50:48.406Z,2.70
2023-04-02T07:53:30.089Z,2.78
2023-04-02T07:55:59.003Z,4.38
2023-04-02T07:58:25.956Z,2.78
2023-04-02T08:00:52.956Z,3.87
2023-04-02T08:03:22.035Z,2.05
2023-04-02T08:05:57.635Z,2.58
2023-04-02T08:08:25.601Z,2.63
2023-04-02T08:10:52.156Z,3.80
2023-04-02T08:13:19.181Z,2.67
2023-04-02T08:15:48.190Z,2.75
2023-04-02T08:18:17.784Z,2.13
2023-04-02T08:20:44.329Z,2.88
2023-04-02T08:23:17.090Z,2.28
2023-04-02T08:25:44.848Z,2.30
2023-04-02T08:28:11.779Z,1.98
2023-04-02T08:30:38.600Z,1.65
2023-04-02T08:33:07.767Z,2.05
2023-04-02T08:35:34.926Z,2.60
2023-04-02T08:38:04.007Z,3.23
2023-04-02T08:40:41.667Z,1.70
2023-04-02T08:43:10.998Z,3.22
2023-04-02T08:46:06.581Z,2.28
2023-04-02T08:48:42.450Z,3.00
2023-04-02T08:51:21.948Z,1.83
2023-04-02T08:53:49.374Z,2.33
2023-04-02T08:56:37.342Z,2.15
2023-04-02T08:59:21.512Z,2.00
2023-04-02T09:02:00.308Z,1.80
2023-04-02T09:04:28.074Z,3.33
2023-04-02T09:06:59.883Z,2.10
2023-04-02T09:09:38.353Z,1.92
2023-04-02T09:12:06.995Z,2.33
2023-04-02T09:14:42.238Z,2.20
2023-04-02T09:17:24.587Z,1.97
2023-04-02T09:20:19.218Z,2.47
2023-04-02T09:22:48.595Z,2.22
2023-04-02T09:25:19.528Z,1.77
2023-04-02T09:27:49.772Z,2.55
2023-04-02T09:30:43.465Z,2.60
2023-04-02T09:33:13.020Z,1.65
2023-04-02T09:35:59.898Z,2.65
2023-04-02T09:38:32.911Z,2.95
2023-04-02T09:41:06.626Z,2.92
2023-04-02T09:43:41.144Z,1.80
2023-04-02T09:46:17.480Z,3.05
2023-04-02T09:48:53.206Z,2.13
2023-04-02T09:51:23.086Z,3.65
2023-04-02T09:54:07.625Z,1.65
2023-04-02T09:56:39.555Z,0.80
2023-04-02T09:59:22.784Z,1.50
2023-04-02T10:01:55.033Z,0.98
2023-04-02T10:04:38.673Z,2.15
2023-04-02T10:07:06.567Z,1.77
2023-04-02T10:09:36.326Z,0.90
2023-04-02T10:12:06.806Z,1.23
2023-04-02T10:14:37.564Z,1.83
2023-04-02T10:17:18.946Z,1.20
2023-04-02T10:19:59.146Z,1.10
2023-04-02T10:22:28.405Z,2.00
2023-04-02T10:24:57.652Z,0.95
2023-04-02T10:27:37.619Z,1.45
2023-04-02T10:30:16.460Z,2.38
2023-04-02T10:32:56.630Z,1.17
2023-04-02T10:35:59.606Z,1.20
2023-04-02T10:38:42.657Z,1.83
2023-04-02T10:41:27.798Z,1.10
2023-04-02T10:44:29.851Z,1.58
2023-04-02T10:47:02.205Z,1.25
2023-04-02T10:50:06.968Z,1.30
2023-04-02T10:52:43.872Z,1.13
2023-04-02T10:55:29.036Z,0.88
2023-04-02T10:58:03.087Z,1.42
2023-04-02T11:00:35.111Z,1.88
2023-04-02T11:03:11.424Z,2.07
2023-04-02T11:05:54.522Z,1.40
2023-04-02T11:08:43.828Z,1.15
2023-04-02T11:11:15.064Z,1.23
2023-04-02T11:14:24.995Z,1.05
2023-04-02T11:16:54.347Z,1.47
2023-04-02T11:19:21.293Z,1.25
2023-04-02T11:21:58.675Z,2.00
2023-04-02T11:24:32.960Z,1.05
2023-04-02T11:27:25.038Z,0.90
2023-04-02T11:30:06.770Z,2.10
2023-04-02T11:32:36.421Z,2.80
2023-04-02T11:35:33.704Z,2.03
2023-04-02T11:38:12.384Z,1.40
2023-04-02T11:40:58.059Z,1.60
2023-04-02T11:43:37.131Z,0.90
2023-04-02T11:46:08.509Z,1.45
2023-04-02T11:48:37.943Z,1.05
2023-04-02T11:51:25.479Z,2.15
2023-04-02T11:53:54.284Z,3.85
2023-04-02T11:56:39.534Z,4.17
2023-04-02T11:59:32.947Z,3.15
2023-04-02T12:02:17.157Z,3.25
2023-04-02T12:05:14.627Z,2.42
2023-04-02T12:07:58.583Z,1.67
2023-04-02T12:10:51.570Z,3.13
2023-04-02T12:13:26.063Z,1.40
2023-04-02T12:15:52.767Z,3.55
2023-04-02T12:18:32.759Z,1.98
2023-04-02T12:20:59.472Z,3.53
2023-04-02T12:23:31.376Z,3.67
2023-04-02T12:26:08.749Z,4.00
2023-04-02T12:28:38.131Z,5.70
2023-04-02T12:31:14.329Z,1.13
2023-04-02T12:33:42.586Z,0.93
2023-04-02T12:36:14.137Z,1.70
2023-04-02T12:38:45.662Z,1.33
2023-04-02T12:41:24.549Z,3.90
2023-04-02T12:44:02.331Z,4.00
2023-04-02T12:46:31.252Z,1.10
2023-04-02T12:49:26.373Z,0.60
2023-04-02T12:51:54.565Z,0.80
2023-04-02T12:54:23.850Z,0.82
2023-04-02T12:56:51.537Z,1.10
2023-04-02T12:59:42.879Z,0.70
2023-04-02T13:02:27.876Z,0.70
2023-04-02T13:05:03.827Z,0.70
2023-04-02T13:07:33.620Z,0.73
2023-04-02T13:10:05.787Z,0.60
2023-04-02T13:12:39.967Z,0.57
2023-04-02T13:15:20.172Z,0.90
2023-04-02T13:18:01.339Z,0.90
2023-04-02T13:20:29.268Z,0.80
2023-04-02T13:22:56.243Z,1.00
2023-04-02T13:25:32.083Z,0.73
2023-04-02T13:28:02.048Z,0.60
2023-04-02T13:30:31.923Z,0.93
2023-04-02T13:32:58.565Z,1.35
2023-04-02T13:35:27.631Z,0.60
2023-04-02T13:37:54.267Z,0.70
2023-04-02T13:40:23.564Z,0.80
2023-04-02T13:42:54.850Z,2.03
2023-04-02T13:45:26.827Z,0.65
2023-04-02T13:47:53.978Z,1.23
2023-04-02T13:50:24.726Z,0.60
2023-04-02T13:52:54.552Z,0.60
2023-04-02T13:55:28.818Z,0.70
2023-04-02T13:57:58.295Z,0.50
2023-04-02T14:00:25.720Z,0.95
2023-04-02T14:03:01.439Z,0.60
2023-04-02T14:05:53.716Z,0.60
2023-04-02T14:08:28.865Z,0.60
2023-04-02T14:11:13.921Z,0.63
2023-04-02T14:13:51.739Z,0.52
2023-04-02T14:16:28.567Z,1.33
2023-04-02T14:19:14.006Z,0.50
2023-04-02T14:21:43.624Z,0.98
2023-04-02T14:24:18.091Z,0.50
2023-04-02T14:27:26.864Z,2.28
2023-04-02T14:30:13.716Z,0.90
2023-04-02T14:32:56.761Z,0.70
2023-04-02T14:35:35.080Z,0.85
2023-04-02T14:38:21.533Z,0.65
2023-04-02T14:40:52.477Z,0.57
2023-04-02T14:43:35.891Z,0.60
2023-04-02T14:46:06.666Z,0.50
2023-04-02T14:48:52.083Z,0.60
2023-04-02T14:51:40.926Z,0.60
2023-04-02T14:54:11.753Z,0.50
2023-04-02T14:56:47.755Z,0.80
2023-04-02T14:59:37.567Z,0.80
2023-04-02T15:02:14.107Z,0.70
2023-04-02T15:04:46.427Z,0.70
2023-04-02T15:07:22.169Z,0.60
2023-04-02T15:10:04.010Z,1.33
2023-04-02T15:12:33.822Z,0.60
2023-04-02T15:15:42.699Z,1.00
2023-04-02T15:18:17.668Z,1.60
2023-04-02T15:20:59.363Z,0.95
2023-04-02T15:23:40.873Z,1.13
2023-04-02T15:26:23.794Z,0.80
2023-04-02T15:29:00.085Z,0.80
2023-04-02T15:31:30.951Z,1.83
2023-04-02T15:34:30.360Z,6.45
2023-04-02T15:37:21.877Z,0.90
2023-04-02T15:40:18.894Z,3.37
2023-04-02T15:43:15.178Z,1.55
2023-04-02T15:45:53.196Z,0.98
2023-04-02T15:48:37.972Z,0.82
2023-04-02T15:51:27.915Z,0.95
2023-04-02T15:54:07.704Z,0.83
2023-04-02T15:56:46.240Z,0.60
2023-04-02T15:59:22.122Z,0.75
2023-04-02T16:02:27.745Z,0.75
2023-04-02T16:05:14.394Z,0.70
2023-04-02T16:07:54.461Z,22.23
2023-04-02T16:10:38.000Z,8.88
2023-04-02T16:13:17.251Z,1.02
2023-04-02T16:15:51.617Z,5.15
2023-04-02T16:18:46.394Z,4.07
2023-04-02T16:21:19.236Z,1.57
2023-04-02T16:23:48.366Z,1.17
2023-04-02T16:26:32.911Z,1.10
2023-04-02T16:29:11.554Z,0.60
2023-04-02T16:31:55.636Z,0.63
2023-04-02T16:34:59.489Z,0.90
2023-04-02T16:37:48.814Z,0.80
2023-04-02T16:40:37.560Z,1.50
2023-04-02T16:43:24.234Z,1.08
2023-04-02T16:46:04.378Z,1.55
2023-04-02T16:48:53.752Z,2.10
2023-04-02T16:51:38.108Z,1.02
2023-04-02T16:54:27.275Z,4.05
2023-04-02T16:57:11.718Z,1.40
2023-04-02T16:59:55.761Z,0.57
2023-04-02T17:02:57.625Z,0.47
2023-04-02T17:05:59.382Z,0.80
2023-04-02T17:08:31.839Z,0.73
2023-04-02T17:11:07.061Z,0.60
2023-04-02T17:13:42.603Z,0.70
2023-04-02T17:16:12.168Z,0.70
2023-04-02T17:18:42.557Z,0.60
2023-04-02T17:21:14.872Z,1.60
2023-04-02T17:23:55.802Z,1.15
2023-04-02T17:26:28.593Z,0.60
2023-04-02T17:28:58.191Z,0.50
2023-04-02T17:31:30.855Z,0.30
2023-04-02T17:34:00.568Z,0.88
2023-04-02T17:36:59.846Z,0.50
2023-04-02T17:39:47.137Z,0.50
2023-04-02T17:42:14.373Z,0.40
2023-04-02T17:44:43.917Z,1.05
2023-04-02T17:47:13.399Z,0.77
2023-04-02T17:50:17.595Z,1.23
2023-04-02T17:52:53.444Z,0.63
2023-04-02T17:55:32.448Z,0.40
2023-04-02T17:58:27.546Z,1.50
2023-04-02T18:01:14.654Z,1.42
2023-04-02T18:04:06.374Z,0.47
2023-04-02T18:06:58.194Z,0.40
2023-04-02T18:09:37.338Z,0.37
2023-04-02T18:12:12.920Z,0.40
2023-04-02T18:15:04.006Z,0.52
2023-04-02T18:18:01.795Z,0.52
2023-04-02T18:20:55.409Z,0.35
2023-04-02T18:23:55.491Z,0.57
2023-04-02T18:26:45.908Z,0.57
2023-04-02T18:29:27.574Z,0.70
2023-04-02T18:32:15.306Z,0.30
2023-04-02T18:35:23.467Z,0.85
2023-04-02T18:38:18.938Z,0.50
2023-04-02T18:41:24.428Z,0.32
2023-04-02T18:44:30.247Z,1.88
2023-04-02T18:47:09.551Z,0.65
2023-04-02T18:49:39.356Z,0.30
2023-04-02T18:52:17.347Z,0.80
2023-04-02T18:54:50.056Z,0.40
2023-04-02T18:57:25.377Z,0.60
2023-04-02T19:00:01.938Z,0.40
2023-04-02T19:02:31.367Z,0.40
2023-04-02T19:05:12.710Z,1.60
2023-04-02T19:07:43.284Z,0.82
2023-04-02T19:10:37.708Z,0.55
2023-04-02T19:13:19.903Z,1.55
2023-04-02T19:16:02.282Z,1.92
2023-04-02T19:19:06.375Z,0.97
2023-04-02T19:21:53.799Z,0.60
2023-04-02T19:24:23.288Z,0.60
2023-04-02T19:27:14.130Z,1.20
2023-04-02T19:30:06.419Z,0.88
2023-04-02T19:32:39.924Z,1.07
2023-04-02T19:35:27.068Z,0.55
2023-04-02T19:38:18.506Z,0.80
2023-04-02T19:41:21.089Z,0.77
2023-04-02T19:43:50.890Z,4.82
2023-04-02T19:46:17.571Z,2.10
2023-04-02T19:49:28.537Z,1.88
2023-04-02T19:51:57.396Z,0.98
2023-04-02T19:54:23.939Z,1.20
2023-04-02T19:56:50.786Z,1.63
2023-04-02T19:59:18.575Z,0.97
2023-04-02T20:01:46.730Z,0.88
2023-04-02T20:04:14.474Z,1.25
2023-04-02T20:06:46.010Z,0.73
2023-04-02T20:09:12.593Z,0.80
2023-04-02T20:11:39.341Z,2.40
2023-04-02T20:14:08.416Z,0.70
2023-04-02T20:16:38.648Z,0.80
2023-04-02T20:19:07.584Z,1.55
2023-04-02T20:21:38.237Z,0.90
2023-04-02T20:24:06.726Z,1.30
2023-04-02T20:26:34.911Z,0.90
2023-04-02T20:29:04.307Z,1.25
2023-04-02T20:31:34.295Z,1.67
2023-04-02T20:34:02.568Z,1.85
2023-04-02T20:36:31.741Z,0.47
2023-04-02T20:39:00.786Z,0.85
2023-04-02T20:41:30.143Z,0.95
2023-04-02T20:43:56.764Z,1.98
2023-04-02T20:46:23.367Z,0.90
2023-04-02T20:48:49.969Z,1.33
2023-04-02T20:51:18.986Z,1.30
2023-04-02T20:53:47.835Z,1.65
2023-04-02T20:56:16.464Z,0.93
2023-04-02T20:58:45.361Z,0.90
2023-04-02T21:01:26.674Z,1.33
2023-04-02T21:04:02.180Z,1.00
2023-04-02T21:06:34.085Z,1.27
2023-04-02T21:09:08.503Z,1.08
2023-04-02T21:11:36.459Z,0.80
2023-04-02T21:14:05.556Z,1.00
2023-04-02T21:16:32.407Z,1.23
2023-04-02T21:19:07.918Z,2.05
2023-04-02T21:21:36.069Z,0.88
2023-04-02T21:24:07.697Z,0.77
2023-04-02T21:26:42.665Z,1.00
2023-04-02T21:29:11.600Z,1.63
2023-04-02T21:31:40.162Z,1.83
2023-04-02T21:34:08.536Z,1.48
2023-04-02T21:36:39.358Z,1.58
2023-04-02T21:39:08.623Z,0.90
2023-04-02T21:41:41.022Z,1.42
2023-04-02T21:44:09.198Z,1.05
2023-04-02T21:46:39.140Z,1.23
2023-04-02T21:49:08.137Z,0.80
2023-04-02T21:51:39.292Z,2.13
2023-04-02T21:54:06.337Z,1.70
2023-04-02T21:56:39.445Z,1.65
2023-04-02T21:59:07.691Z,1.58
2023-04-02T22:01:38.308Z,2.22
2023-04-02T22:04:07.734Z,1.07
2023-04-02T22:06:39.728Z,1.60
2023-04-02T22:09:13.261Z,1.80
2023-04-02T22:11:59.945Z,1.40
2023-04-02T22:14:27.542Z,1.63
2023-04-02T22:16:54.980Z,1.17
2023-04-02T22:19:21.958Z,1.15
2023-04-02T22:21:48.560Z,2.50
2023-04-02T22:24:22.512Z,1.90
2023-04-02T22:26:49.520Z,2.65
2023-04-02T22:29:16.681Z,1.80
2023-04-02T22:31:45.595Z,1.65
2023-04-02T22:34:14.835Z,1.25
2023-04-02T22:36:44.385Z,2.03
2023-04-02T22:39:12.351Z,1.33
2023-04-02T22:41:41.673Z,1.63
2023-04-02T22:44:13.652Z,1.75
2023-04-02T22:46:40.611Z,2.30
2023-04-02T22:49:11.013Z,3.08
2023-04-02T22:51:37.539Z,3.05
2023-04-02T22:54:06.438Z,3.67
2023-04-02T22:56:37.885Z,3.58
2023-04-02T22:59:06.766Z,3.45
2023-04-02T23:01:36.073Z,3.50
2023-04-02T23:04:04.927Z,4.47
2023-04-02T23:06:32.028Z,3.83
2023-04-02T23:09:01.550Z,4.65
2023-04-02T23:11:28.458Z,2.97
2023-04-02T23:13:58.295Z,3.03
2023-04-02T23:16:29.386Z,4.78
2023-04-02T23:18:57.160Z,3.43
2023-04-02T23:21:27.012Z,4.57
2023-04-02T23:23:56.274Z,2.75
2023-04-02T23:26:29.452Z,4.35
2023-04-02T23:28:57.741Z,3.65
2023-04-02T23:31:24.755Z,4.37
2023-04-02T23:33:52.430Z,5.65
2023-04-02T23:36:28.856Z,5.50
2023-04-02T23:38:59.729Z,5.65
2023-04-02T23:41:29.324Z,6.97
2023-04-02T23:43:56.821Z,6.80
2023-04-02T23:46:26.184Z,6.50
2023-04-02T23:48:53.990Z,6.22
2023-04-02T23:51:22.845Z,6.22
2023-04-02T23:53:52.633Z,6.10
2023-04-02T23:56:23.041Z,5.03
2023-04-02T23:58:52.237Z,4.40
